GRAND BAY MS US current weather conditions

sailwx.info

Wind from 156 at 5 knots gusting 12

Air temperature 28.9° C
Dewpoint 25.1° C

Last reported at 2019-Jul-15 23:25 UTC.
Time now 2019-Jul-16 00:35 UTC

Location: N 30°26' W 088°26'.
View on Google Maps.

See reports from other nearby stations

  
Tides and Currents Weather Stations Pressure Air Temp Water Temp Dewpoint Dewpoint Depression Visibility Wind Speed Wind Dir Waves Ship Positions
date/time (UTC)wind fromknots sea level pressurealtimeterstation pressurevisibilityair tempwater tempwave heightnotes
2019-Jul-15 23:25 156 5 gusting 12 28.9
2019-Jul-15 22:25 168 4 gusting 12 29.4
2019-Jul-15 21:25 183 5 gusting 12 30.6
2019-Jul-15 20:25 175 6 gusting 15 30.6
2019-Jul-15 19:25 167 6 gusting 16 31.7
2019-Jul-15 18:25 159 6 gusting 14 31.7
2019-Jul-15 17:25 153 6 gusting 13 31.1
2019-Jul-15 16:25 161 6 gusting 13 31.1
2019-Jul-15 15:25 153 6 gusting 11 30.6
2019-Jul-15 14:25 163 6 gusting 11 30.0
2019-Jul-15 13:25 167 5 gusting 10 28.3
2019-Jul-15 12:25 193 2 gusting 10 27.8
2019-Jul-15 11:25 176 4 gusting 8 27.8
2019-Jul-15 10:25 173 4 gusting 7 27.2
2019-Jul-15 09:25 172 3 gusting 11 27.8
2019-Jul-15 08:25 151 5 gusting 11 27.8
2019-Jul-15 07:25 155 4 gusting 12 27.8
2019-Jul-15 05:25 152 5 gusting 11 27.8
2019-Jul-15 04:25 142 5 gusting 11 27.8
2019-Jul-15 03:25 145 4 gusting 9 27.8
2019-Jul-15 02:25 148 4 gusting 10 27.8
2019-Jul-15 01:25 143 4 gusting 9 27.8
2019-Jul-15 00:25 148 4 gusting 9 28.3
2019-Jul-14 23:25 147 4 gusting 9 28.3
2019-Jul-14 22:25 154 3 gusting 11 28.9
2019-Jul-14 21:25 151 5 gusting 11 28.9
2019-Jul-14 20:25 148 5 gusting 11 28.9
2019-Jul-14 19:25 157 5 gusting 13 29.4
2019-Jul-14 18:25 159 5 gusting 12 29.4
2019-Jul-14 17:25 152 5 gusting 13 29.4
2019-Jul-14 16:25 141 6 gusting 14 29.4
2019-Jul-14 15:25 146 5 gusting 12 29.4
2019-Jul-14 14:25 139 6 gusting 11 28.9
2019-Jul-14 13:25 138 5 gusting 12 28.9
2019-Jul-14 12:25 142 6 gusting 13 28.9
2019-Jul-14 11:25 134 5 gusting 12 27.8
2019-Jul-14 10:25 139 5 gusting 13 27.8
2019-Jul-14 09:25 136 6 gusting 13 27.8
2019-Jul-14 08:25 137 6 gusting 12 27.8
2019-Jul-14 07:25 138 4 gusting 12 27.8
2019-Jul-14 06:25 139 5 gusting 12 27.8
2019-Jul-14 05:25 140 6 gusting 13 27.8
2019-Jul-14 04:25 135 6 gusting 13 27.8
2019-Jul-14 03:25 132 6 gusting 14 27.8
2019-Jul-14 02:25 132 6 gusting 13 27.8
2019-Jul-14 01:25 136 4 gusting 10 27.8
2019-Jul-14 00:25 054 1 gusting 5 25.6